Flight Track Log - Related Links

Times and Time Zones

All times are in EST time to prevent confusion due to time zone crossing. See the N508DK flight status page for this flight to view local times or setup timezone preferences in your user account.

Time Position Orientation Groundspeed Altitude Reporting Facility
EST Latitude Longitude Course Direction KTS MPH feet Rate Location/Type
Thu 08:26:15 PM 42.9436 -83.8569 236° Southwest 135 155 3,000  Level Cleveland Center
Thu 08:27:18 PM 42.9294 -83.9083 249° West 144 166 3,500 480 Climbing Cleveland Center
Thu 08:28:20 PM 42.9147 -83.9644 250° West 146 168 4,000 290 Climbing Cleveland Center
Thu 08:29:22 PM 42.9003 -84.0153 249° West 146 168 4,100 48 Climbing Cleveland Center
Thu 08:30:00 PM 42.8677 -84.0633 248° West  Level FlightAware
Thu 08:30:24 PM 42.8853 -84.0742 251° West 152 175 4,100  Level Cleveland Center
Thu 08:31:00 PM 42.8579 -84.1175 236° Southwest  Level FlightAware
Thu 08:31:26 PM 42.8700 -84.1319 250° West 152 175 4,100  Level Cleveland Center
Thu 08:32:28 PM 42.8556 -84.1850 250° West 152 175 4,200  Climbing Cleveland Center
Thu 08:33:30 PM 42.8403 -84.2428 250° West 151 174 4,100 -48 Descending Cleveland Center
Thu 08:34:32 PM 42.8264 -84.2961 250° West 151 174 4,100  Level Cleveland Center
Thu 08:35:34 PM 42.8103 -84.3522 249° West 150 173 4,100  Level Cleveland Center
Thu 08:36:34 PM 42.7958 -84.3994 247° West 199 229 4,100  Level Chicago Center
Thu 08:37:36 PM 42.7847 -84.4500 253° West 142 163 4,100  Level Chicago Center
Thu 08:38:38 PM 42.7703 -84.5017 249° West 145 167 4,100  Level Chicago Center
Thu 08:39:40 PM 42.7550 -84.5631 251° West 144 166 4,100  Level Chicago Center
Thu 08:40:42 PM 42.7469 -84.6183 259° West 146 168 4,100  Level Chicago Center
Thu 08:41:44 PM 42.7375 -84.6725 257° West 148 170 4,100  Level Chicago Center
Thu 08:42:46 PM 42.7228 -84.7256 249° West 151 174 4,100  Level Chicago Center
Thu 08:43:49 PM 42.6967 -84.7736 234° Southwest 156 180 4,100  Level Chicago Center
Thu 08:44:51 PM 42.6731 -84.8217 236° Southwest 155 178 4,100  Level Chicago Center
Thu 08:45:53 PM 42.6461 -84.8817 239° Southwest 155 178 4,100  Level Chicago Center
Thu 08:46:55 PM 42.6256 -84.9339 242° Southwest 157 181 4,100  Level Chicago Center
Thu 08:47:57 PM 42.6086 -84.9864 246° West 154 177 4,100  Level Chicago Center
Thu 08:48:59 PM 42.5903 -85.0394 245° Southwest 155 178 4,100  Level Chicago Center
Thu 08:50:01 PM 42.5706 -85.0922 243° Southwest 156 180 4,100  Level Chicago Center
Thu 08:51:03 PM 42.5483 -85.1431 239° Southwest 157 181 4,100  Level Chicago Center
Thu 08:52:05 PM 42.5214 -85.2014 238° Southwest 154 177 4,100  Level Chicago Center
Thu 08:53:08 PM 42.5003 -85.2442 236° Southwest 151 174 4,100  Level Chicago Center
Thu 08:54:10 PM 42.4792 -85.2981 242° Southwest 151 174 4,100  Level Chicago Center
Thu 08:55:12 PM 42.4589 -85.3481 241° Southwest 152 175 4,100  Level Chicago Center
Thu 08:56:14 PM 42.4394 -85.3981 242° Southwest 151 174 4,100  Level Chicago Center
Thu 08:57:16 PM 42.4189 -85.4483 241° Southwest 152 175 4,100  Level Chicago Center
Thu 08:58:18 PM 42.3983 -85.5097 246° West 150 173 4,100  Level Chicago Center
Thu 08:59:20 PM 42.3800 -85.5606 244° Southwest 150 173 4,100  Level Chicago Center
Thu 09:00:22 PM 42.3581 -85.6094 239° Southwest 152 175 4,100  Level Chicago Center
Thu 09:01:24 PM 42.3369 -85.6589 240° Southwest 153 176 4,100  Level Chicago Center
Thu 09:02:26 PM 42.3144 -85.7086 239° Southwest 154 177 4,100  Level Chicago Center
Thu 09:03:28 PM 42.2922 -85.7569 238° Southwest 153 176 4,100  Level Chicago Center
Thu 09:04:31 PM 42.2694 -85.8117 241° Southwest 152 175 4,100  Level Chicago Center
Thu 09:05:33 PM 42.2500 -85.8650 244° Southwest 156 180 4,100  Level Chicago Center
Thu 09:06:35 PM 42.2281 -85.9275 245° Southwest 156 180 4,100  Level Chicago Center
Thu 09:07:37 PM 42.2100 -85.9761 243° Southwest 150 173 4,100  Level Chicago Center
Thu 09:08:39 PM 42.1836 -86.0186 230° Southwest 154 177 4,100  Level Chicago Center
Thu 09:09:41 PM 42.1456 -86.0506 212° Southwest 162 186 4,100  Level Chicago Center
Thu 09:10:44 PM 42.1103 -86.0853 216° Southwest 158 182 4,100 -48 Level Chicago Center
Thu 09:11:45 PM 42.0761 -86.1192 216° Southwest 155 178 4,000 -49 Descending Chicago Center
Thu 09:12:47 PM 42.0344 -86.1625 218° Southwest 157 181 4,000 48 Level Chicago Center
Thu 09:13:49 PM 41.9997 -86.1969 216° Southwest 156 180 4,100  Climbing Chicago Center
Thu 09:14:51 PM 41.9633 -86.2300 214° Southwest 157 181 4,000 -48 Descending Chicago Center
Thu 09:15:53 PM 41.9253 -86.2633 213° Southwest 161 185 4,000  Level Chicago Center
Thu 09:16:55 PM 41.8867 -86.2925 209° Southwest 161 185 4,000 48 Level Chicago Center
Thu 09:17:57 PM 41.8394 -86.3308 211° Southwest 164 189 4,100 48 Climbing Chicago Center
Thu 09:19:00 PM 41.8036 -86.3669 217° Southwest 163 188 4,100 -48 Level Chicago Center
Thu 09:20:02 PM 41.7686 -86.4044 219° Southwest 163 188 4,000  Descending Chicago Center
Thu 09:21:04 PM 41.7333 -86.4403 217° Southwest 161 185 4,100  Climbing Chicago Center
Thu 09:22:06 PM 41.6981 -86.4769 218° Southwest 161 185 4,000  Descending Chicago Center
Thu 09:23:08 PM 41.6622 -86.5136 217° Southwest 162 186 4,100  Climbing Chicago Center
Thu 09:24:10 PM 41.6172 -86.5536 214° Southwest 163 188 4,000  Descending Chicago Center
Thu 09:25:12 PM 41.5789 -86.5889 215° Southwest 165 190 4,100 49 Climbing Chicago Center
Thu 09:26:13 PM 41.5383 -86.6222 212° Southwest 169 194 4,100 -49 Level Chicago Center
Thu 09:27:15 PM 41.5000 -86.6564 214° Southwest 168 193 4,000 -48 Descending Chicago Center
Thu 09:28:17 PM 41.4600 -86.6903 212° Southwest 169 194 4,000  Level Chicago Center
Thu 09:29:19 PM 41.4203 -86.7269 215° Southwest 170 196 4,000  Level Chicago Center
Thu 09:30:21 PM 41.3831 -86.7611 215° Southwest 166 191 4,000 48 Level Chicago Center
Thu 09:31:23 PM 41.3431 -86.8061 220° Southwest 164 189 4,100  Climbing Chicago Center
Thu 09:32:25 PM 41.3464 -86.8619 275° West 155 178 4,000 -48 Descending Chicago Center
Thu 09:33:27 PM 41.3428 -86.9147 265° West 147 169 4,000 49 Level Chicago Center
Thu 09:34:28 PM 41.3383 -86.9708 264° West 151 174 4,100  Climbing Chicago Center
Thu 09:35:30 PM 41.3350 -87.0247 265° West 149 171 4,000  Descending Chicago Center
Thu 09:36:32 PM 41.3322 -87.0792 266° West 148 170 4,100 48 Climbing Chicago Center
Thu 09:37:34 PM 41.3275 -87.1453 265° West 149 171 4,100  Level Chicago Center
Thu 09:38:35 PM 41.3231 -87.1992 264° West 148 170 4,100 49 Level Chicago Center
Thu 09:39:37 PM 41.3203 -87.2536 266° West 149 171 4,200  Climbing Chicago Center
Thu 09:40:39 PM 41.3486 -87.2928 314° West 151 174 4,100 -48 Descending Chicago Center
Thu 09:41:41 PM 41.3742 -87.3333 310° West 146 168 4,100  Level Chicago Center
Thu 09:42:42 PM 41.3978 -87.3747 307° West 144 166 4,100  Level Chicago Center
Thu 09:43:44 PM 41.4236 -87.4269 303° West 143 165 4,100  Level Chicago Center
Thu 09:44:46 PM 41.4442 -87.4714 302° West 142 163 4,100  Level Chicago Center
Thu 09:45:47 PM 41.4639 -87.5169 300° West 143 165 4,100 -48 Level Chicago Center
Thu 09:46:50 PM 41.4764 -87.5664 289° West 142 163 4,000 -290 Descending Chicago Center
Thu 09:47:51 PM 41.4908 -87.6178 291° West 145 167 3,500 -443 Descending Chicago Center
Thu 09:48:52 PM 41.5069 -87.6706 292° West 150 173 3,100 -195 Descending Chicago Center
Thu 09:49:54 PM 41.5297 -87.7289 298° West 151 174 3,100 -48 Level Chicago Center
Thu 09:50:56 PM 41.5456 -87.7756 294° West 145 167 3,000  Descending Chicago Center
Thu 09:51:57 PM 41.5608 -87.8214 294° West 140 161 3,100 49 Climbing Chicago Center
Thu 09:52:59 PM 41.5758 -87.8675 294° West 138 159 3,100  Level Chicago Center
Thu 09:54:01 PM 41.5911 -87.9131 294° West 137 158 3,100  Level Chicago Center
Thu 09:55:02 PM 41.6061 -87.9597 293° West 137 158 3,100  Level Chicago Center
Thu 09:56:04 PM 41.6258 -88.0133 296° West 136 157 3,100 -49 Level Chicago Center
Thu 09:57:05 PM 41.6617 -88.0342 337° Northwest 142 163 3,000 -195 Descending Chicago Center
Thu 09:58:07 PM 41.6936 -88.0658 323° Northwest 144 166 2,700 -194 Descending Chicago Center
Thu 09:59:09 PM 41.7303 -88.0997 325° Northwest 148 170 2,600 -49 Descending Chicago Center
Thu 10:00:10 PM 41.7625 -88.1253 329° Northwest 147 169 2,600  Level Chicago Center
Thu 10:01:11 PM 41.7942 -88.1519 328° Northwest 142 163 2,600  Level Chicago Center
Thu 10:02:13 PM 41.8136 -88.1853 308° West 137 158 2,600  Level Chicago Center
Thu 10:03:14 PM 41.8369 -88.2258 308° West 121 139 2,600 -390 Level Chicago Center
Thu 10:04:16 PM 41.8519 -88.2536 306° West 104 120 1,800 -634 Descending Chicago Center
Thu 10:05:17 PM 41.8703 -88.2622 341° North 85 98 1,300 -341 Descending Chicago Center
Thu 10:06:19 PM 41.8922 -88.2550 14° North 86 99 1,100 -194 Descending Chicago Center

Login

Don't have an account? Register now (free) for customized features, flight alerts, and more!